sensor_id;sensor_type;location;lat;lon;timestamp;P1;durP1;ratioP1;P2;durP2;ratioP2
44139;SDS011;29803;51.048;4.686;2023-01-26T00:02:27;321.38;;;50.47;;
44139;SDS011;29803;51.048;4.686;2023-01-26T00:04:57;284.38;;;49.72;;
44139;SDS011;29803;51.048;4.686;2023-01-26T00:07:28;309.40;;;49.20;;
44139;SDS011;29803;51.048;4.686;2023-01-26T00:09:58;311.80;;;52.92;;
44139;SDS011;29803;51.048;4.686;2023-01-26T00:12:29;322.17;;;53.72;;
44139;SDS011;29803;51.048;4.686;2023-01-26T00:14:59;308.95;;;52.40;;
44139;SDS011;29803;51.048;4.686;2023-01-26T00:17:30;329.80;;;52.95;;
44139;SDS011;29803;51.048;4.686;2023-01-26T00:20:00;323.48;;;50.30;;
44139;SDS011;29803;51.048;4.686;2023-01-26T00:22:30;339.10;;;53.50;;
44139;SDS011;29803;51.048;4.686;2023-01-26T00:25:01;317.67;;;52.78;;
44139;SDS011;29803;51.048;4.686;2023-01-26T00:27:31;313.63;;;50.67;;
44139;SDS011;29803;51.048;4.686;2023-01-26T00:30:02;306.27;;;49.95;;
44139;SDS011;29803;51.048;4.686;2023-01-26T00:32:36;327.75;;;52.67;;
44139;SDS011;29803;51.048;4.686;2023-01-26T00:35:07;310.58;;;50.78;;
44139;SDS011;29803;51.048;4.686;2023-01-26T00:37:41;336.98;;;51.95;;
44139;SDS011;29803;51.048;4.686;2023-01-26T00:40:11;300.98;;;50.10;;
44139;SDS011;29803;51.048;4.686;2023-01-26T00:42:42;304.92;;;48.78;;
44139;SDS011;29803;51.048;4.686;2023-01-26T00:45:12;334.85;;;52.80;;
44139;SDS011;29803;51.048;4.686;2023-01-26T00:47:43;335.67;;;51.97;;
44139;SDS011;29803;51.048;4.686;2023-01-26T00:50:14;318.35;;;52.85;;
44139;SDS011;29803;51.048;4.686;2023-01-26T00:52:44;330.67;;;51.13;;
44139;SDS011;29803;51.048;4.686;2023-01-26T00:55:15;314.73;;;51.47;;
44139;SDS011;29803;51.048;4.686;2023-01-26T00:57:45;321.48;;;52.42;;
44139;SDS011;29803;51.048;4.686;2023-01-26T01:00:16;346.60;;;51.75;;
44139;SDS011;29803;51.048;4.686;2023-01-26T01:02:47;296.70;;;51.65;;
44139;SDS011;29803;51.048;4.686;2023-01-26T01:05:17;300.77;;;50.53;;
44139;SDS011;29803;51.048;4.686;2023-01-26T01:07:48;271.63;;;46.83;;
44139;SDS011;29803;51.048;4.686;2023-01-26T01:10:18;289.40;;;48.20;;
44139;SDS011;29803;51.048;4.686;2023-01-26T01:12:49;309.40;;;48.45;;
44139;SDS011;29803;51.048;4.686;2023-01-26T01:15:19;315.27;;;48.45;;
44139;SDS011;29803;51.048;4.686;2023-01-26T01:17:50;323.40;;;50.30;;
44139;SDS011;29803;51.048;4.686;2023-01-26T01:20:20;354.55;;;55.45;;
44139;SDS011;29803;51.048;4.686;2023-01-26T01:22:51;351.63;;;52.90;;
44139;SDS011;29803;51.048;4.686;2023-01-26T01:25:22;311.92;;;48.10;;
44139;SDS011;29803;51.048;4.686;2023-01-26T01:27:52;347.05;;;49.75;;
44139;SDS011;29803;51.048;4.686;2023-01-26T01:30:22;288.50;;;47.53;;
44139;SDS011;29803;51.048;4.686;2023-01-26T01:32:53;307.58;;;48.67;;
44139;SDS011;29803;51.048;4.686;2023-01-26T01:35:23;315.52;;;51.83;;
44139;SDS011;29803;51.048;4.686;2023-01-26T01:37:54;333.48;;;49.63;;
44139;SDS011;29803;51.048;4.686;2023-01-26T01:40:24;341.25;;;51.88;;
44139;SDS011;29803;51.048;4.686;2023-01-26T01:42:55;315.10;;;49.90;;
44139;SDS011;29803;51.048;4.686;2023-01-26T01:47:56;319.60;;;51.50;;
44139;SDS011;29803;51.048;4.686;2023-01-26T01:50:30;352.45;;;49.95;;
44139;SDS011;29803;51.048;4.686;2023-01-26T01:53:07;332.27;;;50.38;;
44139;SDS011;29803;51.048;4.686;2023-01-26T01:55:43;314.83;;;50.63;;
44139;SDS011;29803;51.048;4.686;2023-01-26T01:58:15;316.48;;;47.88;;
44139;SDS011;29803;51.048;4.686;2023-01-26T02:00:45;310.00;;;48.53;;
44139;SDS011;29803;51.048;4.686;2023-01-26T02:03:15;313.00;;;46.03;;
44139;SDS011;29803;51.048;4.686;2023-01-26T02:08:42;316.83;;;47.58;;
44139;SDS011;29803;51.048;4.686;2023-01-26T02:11:17;304.15;;;46.53;;
44139;SDS011;29803;51.048;4.686;2023-01-26T02:14:02;298.23;;;44.90;;
44139;SDS011;29803;51.048;4.686;2023-01-26T02:16:36;296.05;;;44.75;;
44139;SDS011;29803;51.048;4.686;2023-01-26T02:19:11;316.25;;;49.15;;
44139;SDS011;29803;51.048;4.686;2023-01-26T02:21:51;263.50;;;45.42;;
44139;SDS011;29803;51.048;4.686;2023-01-26T02:24:28;303.25;;;45.00;;
44139;SDS011;29803;51.048;4.686;2023-01-26T02:27:04;298.75;;;44.30;;
44139;SDS011;29803;51.048;4.686;2023-01-26T02:29:35;264.75;;;42.92;;
44139;SDS011;29803;51.048;4.686;2023-01-26T02:32:06;299.13;;;46.65;;
44139;SDS011;29803;51.048;4.686;2023-01-26T02:34:37;274.55;;;43.42;;
44139;SDS011;29803;51.048;4.686;2023-01-26T02:37:12;293.75;;;44.40;;
44139;SDS011;29803;51.048;4.686;2023-01-26T02:39:46;292.70;;;50.80;;
44139;SDS011;29803;51.048;4.686;2023-01-26T02:42:24;287.50;;;48.97;;
44139;SDS011;29803;51.048;4.686;2023-01-26T02:45:14;305.00;;;46.58;;
44139;SDS011;29803;51.048;4.686;2023-01-26T02:47:46;279.52;;;46.33;;
44139;SDS011;29803;51.048;4.686;2023-01-26T02:50:17;281.50;;;47.88;;
44139;SDS011;29803;51.048;4.686;2023-01-26T02:52:48;274.70;;;44.50;;
44139;SDS011;29803;51.048;4.686;2023-01-26T02:55:18;290.58;;;46.55;;
44139;SDS011;29803;51.048;4.686;2023-01-26T02:57:53;292.63;;;47.72;;
44139;SDS011;29803;51.048;4.686;2023-01-26T03:00:32;288.10;;;46.13;;
44139;SDS011;29803;51.048;4.686;2023-01-26T03:03:12;283.35;;;49.88;;
44139;SDS011;29803;51.048;4.686;2023-01-26T03:05:44;305.15;;;50.25;;
44139;SDS011;29803;51.048;4.686;2023-01-26T03:08:15;293.67;;;47.60;;
44139;SDS011;29803;51.048;4.686;2023-01-26T03:10:46;287.92;;;46.00;;
44139;SDS011;29803;51.048;4.686;2023-01-26T03:13:16;284.65;;;45.90;;
44139;SDS011;29803;51.048;4.686;2023-01-26T03:15:47;283.52;;;46.25;;
44139;SDS011;29803;51.048;4.686;2023-01-26T03:18:24;299.83;;;47.40;;
44139;SDS011;29803;51.048;4.686;2023-01-26T03:21:14;306.35;;;47.38;;
44139;SDS011;29803;51.048;4.686;2023-01-26T03:24:04;304.05;;;48.95;;
44139;SDS011;29803;51.048;4.686;2023-01-26T03:26:54;292.48;;;43.75;;
44139;SDS011;29803;51.048;4.686;2023-01-26T03:29:43;289.17;;;45.83;;
44139;SDS011;29803;51.048;4.686;2023-01-26T03:32:14;288.45;;;45.58;;
44139;SDS011;29803;51.048;4.686;2023-01-26T03:34:44;292.80;;;49.40;;
44139;SDS011;29803;51.048;4.686;2023-01-26T03:37:16;287.40;;;48.65;;
44139;SDS011;29803;51.048;4.686;2023-01-26T03:39:51;278.02;;;43.65;;
44139;SDS011;29803;51.048;4.686;2023-01-26T03:42:40;275.52;;;45.72;;
44139;SDS011;29803;51.048;4.686;2023-01-26T03:45:29;302.45;;;48.10;;
44139;SDS011;29803;51.048;4.686;2023-01-26T03:48:18;255.25;;;44.88;;
44139;SDS011;29803;51.048;4.686;2023-01-26T03:51:07;263.58;;;43.97;;
44139;SDS011;29803;51.048;4.686;2023-01-26T03:53:55;283.20;;;46.80;;
44139;SDS011;29803;51.048;4.686;2023-01-26T03:56:45;301.02;;;47.83;;
44139;SDS011;29803;51.048;4.686;2023-01-26T03:59:15;281.02;;;45.13;;
44139;SDS011;29803;51.048;4.686;2023-01-26T04:01:46;282.15;;;48.42;;
44139;SDS011;29803;51.048;4.686;2023-01-26T04:04:35;283.73;;;45.90;;
44139;SDS011;29803;51.048;4.686;2023-01-26T04:07:24;296.95;;;49.50;;
44139;SDS011;29803;51.048;4.686;2023-01-26T04:10:12;303.83;;;47.55;;
44139;SDS011;29803;51.048;4.686;2023-01-26T04:12:43;288.23;;;44.42;;
44139;SDS011;29803;51.048;4.686;2023-01-26T04:15:13;294.63;;;46.22;;
44139;SDS011;29803;51.048;4.686;2023-01-26T04:18:06;302.73;;;47.67;;
44139;SDS011;29803;51.048;4.686;2023-01-26T04:20:56;334.42;;;50.22;;
44139;SDS011;29803;51.048;4.686;2023-01-26T04:23:44;297.67;;;46.63;;
44139;SDS011;29803;51.048;4.686;2023-01-26T04:26:15;321.88;;;49.33;;
44139;SDS011;29803;51.048;4.686;2023-01-26T04:28:45;304.50;;;47.92;;
44139;SDS011;29803;51.048;4.686;2023-01-26T04:31:16;295.88;;;47.33;;
44139;SDS011;29803;51.048;4.686;2023-01-26T04:33:46;306.30;;;48.22;;
44139;SDS011;29803;51.048;4.686;2023-01-26T04:36:17;275.05;;;46.22;;
44139;SDS011;29803;51.048;4.686;2023-01-26T04:38:47;279.13;;;45.75;;
44139;SDS011;29803;51.048;4.686;2023-01-26T04:41:18;322.27;;;49.92;;
44139;SDS011;29803;51.048;4.686;2023-01-26T04:43:49;314.13;;;49.53;;
44139;SDS011;29803;51.048;4.686;2023-01-26T04:46:20;282.67;;;43.97;;
44139;SDS011;29803;51.048;4.686;2023-01-26T04:48:51;298.77;;;47.35;;
44139;SDS011;29803;51.048;4.686;2023-01-26T04:51:22;287.27;;;46.30;;
44139;SDS011;29803;51.048;4.686;2023-01-26T04:53:53;313.42;;;49.20;;
44139;SDS011;29803;51.048;4.686;2023-01-26T04:58:57;288.70;;;44.67;;
44139;SDS011;29803;51.048;4.686;2023-01-26T05:01:28;293.85;;;47.97;;
44139;SDS011;29803;51.048;4.686;2023-01-26T05:04:00;270.00;;;43.05;;
44139;SDS011;29803;51.048;4.686;2023-01-26T05:06:31;283.33;;;44.10;;
44139;SDS011;29803;51.048;4.686;2023-01-26T05:09:01;271.42;;;44.53;;
44139;SDS011;29803;51.048;4.686;2023-01-26T05:11:32;279.30;;;48.33;;
44139;SDS011;29803;51.048;4.686;2023-01-26T05:14:03;327.17;;;46.85;;
44139;SDS011;29803;51.048;4.686;2023-01-26T05:16:33;287.70;;;44.90;;
44139;SDS011;29803;51.048;4.686;2023-01-26T05:19:03;271.05;;;43.60;;
44139;SDS011;29803;51.048;4.686;2023-01-26T05:21:34;255.27;;;43.85;;
44139;SDS011;29803;51.048;4.686;2023-01-26T05:24:05;254.73;;;45.15;;
44139;SDS011;29803;51.048;4.686;2023-01-26T05:26:37;253.23;;;41.42;;
44139;SDS011;29803;51.048;4.686;2023-01-26T05:29:08;249.73;;;41.00;;
44139;SDS011;29803;51.048;4.686;2023-01-26T05:31:38;237.20;;;43.08;;
44139;SDS011;29803;51.048;4.686;2023-01-26T05:34:08;278.58;;;43.67;;
44139;SDS011;29803;51.048;4.686;2023-01-26T05:36:39;241.20;;;42.78;;
44139;SDS011;29803;51.048;4.686;2023-01-26T05:39:09;258.67;;;42.22;;
44139;SDS011;29803;51.048;4.686;2023-01-26T05:41:40;260.80;;;41.42;;
44139;SDS011;29803;51.048;4.686;2023-01-26T05:44:10;247.05;;;42.75;;
44139;SDS011;29803;51.048;4.686;2023-01-26T05:46:41;241.13;;;40.30;;
44139;SDS011;29803;51.048;4.686;2023-01-26T05:49:11;229.85;;;40.22;;
44139;SDS011;29803;51.048;4.686;2023-01-26T05:51:42;216.73;;;41.58;;
44139;SDS011;29803;51.048;4.686;2023-01-26T05:54:13;195.10;;;38.22;;
44139;SDS011;29803;51.048;4.686;2023-01-26T05:56:43;223.95;;;37.80;;
44139;SDS011;29803;51.048;4.686;2023-01-26T05:59:13;224.70;;;39.28;;
44139;SDS011;29803;51.048;4.686;2023-01-26T06:01:44;190.50;;;37.90;;
44139;SDS011;29803;51.048;4.686;2023-01-26T06:04:14;199.05;;;37.40;;
44139;SDS011;29803;51.048;4.686;2023-01-26T06:06:45;189.57;;;34.65;;
44139;SDS011;29803;51.048;4.686;2023-01-26T06:09:15;197.77;;;37.25;;
44139;SDS011;29803;51.048;4.686;2023-01-26T06:11:46;203.95;;;33.15;;
44139;SDS011;29803;51.048;4.686;2023-01-26T06:14:16;224.23;;;36.65;;
44139;SDS011;29803;51.048;4.686;2023-01-26T06:16:47;191.30;;;35.17;;
44139;SDS011;29803;51.048;4.686;2023-01-26T06:19:18;200.05;;;39.25;;
44139;SDS011;29803;51.048;4.686;2023-01-26T06:21:48;219.40;;;35.33;;
44139;SDS011;29803;51.048;4.686;2023-01-26T06:24:19;209.65;;;36.55;;
44139;SDS011;29803;51.048;4.686;2023-01-26T06:26:49;185.82;;;33.92;;
44139;SDS011;29803;51.048;4.686;2023-01-26T06:29:19;215.88;;;36.72;;
44139;SDS011;29803;51.048;4.686;2023-01-26T06:31:50;195.85;;;34.22;;
44139;SDS011;29803;51.048;4.686;2023-01-26T06:34:20;201.07;;;35.70;;
44139;SDS011;29803;51.048;4.686;2023-01-26T06:36:51;191.50;;;34.08;;
44139;SDS011;29803;51.048;4.686;2023-01-26T06:39:21;186.35;;;34.83;;
44139;SDS011;29803;51.048;4.686;2023-01-26T06:41:52;188.88;;;34.35;;
44139;SDS011;29803;51.048;4.686;2023-01-26T06:44:22;194.05;;;35.58;;
44139;SDS011;29803;51.048;4.686;2023-01-26T06:46:53;182.18;;;33.95;;
44139;SDS011;29803;51.048;4.686;2023-01-26T06:49:23;167.27;;;32.13;;
44139;SDS011;29803;51.048;4.686;2023-01-26T06:51:54;172.50;;;31.60;;
44139;SDS011;29803;51.048;4.686;2023-01-26T06:54:28;162.07;;;32.03;;
44139;SDS011;29803;51.048;4.686;2023-01-26T06:56:58;181.27;;;34.28;;
44139;SDS011;29803;51.048;4.686;2023-01-26T06:59:29;190.70;;;34.30;;
44139;SDS011;29803;51.048;4.686;2023-01-26T07:01:59;175.77;;;33.95;;
44139;SDS011;29803;51.048;4.686;2023-01-26T07:04:29;198.38;;;33.72;;
44139;SDS011;29803;51.048;4.686;2023-01-26T07:07:00;191.90;;;34.38;;
44139;SDS011;29803;51.048;4.686;2023-01-26T07:09:30;177.07;;;33.13;;
44139;SDS011;29803;51.048;4.686;2023-01-26T07:12:01;195.45;;;36.08;;
44139;SDS011;29803;51.048;4.686;2023-01-26T07:14:31;175.73;;;32.28;;
44139;SDS011;29803;51.048;4.686;2023-01-26T07:17:02;184.57;;;35.92;;
44139;SDS011;29803;51.048;4.686;2023-01-26T07:19:32;197.32;;;33.72;;
44139;SDS011;29803;51.048;4.686;2023-01-26T07:22:03;195.27;;;33.88;;
44139;SDS011;29803;51.048;4.686;2023-01-26T07:24:34;191.00;;;35.90;;
44139;SDS011;29803;51.048;4.686;2023-01-26T07:27:04;170.90;;;34.30;;
44139;SDS011;29803;51.048;4.686;2023-01-26T07:29:35;201.88;;;34.50;;
44139;SDS011;29803;51.048;4.686;2023-01-26T07:32:05;193.73;;;33.85;;
44139;SDS011;29803;51.048;4.686;2023-01-26T07:34:36;175.30;;;33.45;;
44139;SDS011;29803;51.048;4.686;2023-01-26T07:37:09;176.73;;;32.50;;
44139;SDS011;29803;51.048;4.686;2023-01-26T07:39:40;161.32;;;33.20;;
44139;SDS011;29803;51.048;4.686;2023-01-26T07:42:11;168.05;;;31.83;;
44139;SDS011;29803;51.048;4.686;2023-01-26T07:44:42;200.90;;;31.70;;
44139;SDS011;29803;51.048;4.686;2023-01-26T07:47:12;161.75;;;30.20;;
44139;SDS011;29803;51.048;4.686;2023-01-26T07:49:46;184.57;;;31.85;;
44139;SDS011;29803;51.048;4.686;2023-01-26T07:52:16;192.55;;;31.95;;
44139;SDS011;29803;51.048;4.686;2023-01-26T07:54:47;163.82;;;30.10;;
44139;SDS011;29803;51.048;4.686;2023-01-26T07:57:20;169.65;;;33.00;;
44139;SDS011;29803;51.048;4.686;2023-01-26T07:59:51;195.57;;;33.50;;
44139;SDS011;29803;51.048;4.686;2023-01-26T08:02:21;180.15;;;33.10;;
44139;SDS011;29803;51.048;4.686;2023-01-26T08:04:51;164.90;;;30.08;;
44139;SDS011;29803;51.048;4.686;2023-01-26T08:07:22;168.55;;;33.58;;
44139;SDS011;29803;51.048;4.686;2023-01-26T08:09:52;153.80;;;30.77;;
44139;SDS011;29803;51.048;4.686;2023-01-26T08:12:23;150.10;;;30.98;;
44139;SDS011;29803;51.048;4.686;2023-01-26T08:14:54;149.18;;;30.42;;
44139;SDS011;29803;51.048;4.686;2023-01-26T08:17:25;165.27;;;31.40;;
44139;SDS011;29803;51.048;4.686;2023-01-26T08:19:57;184.23;;;30.85;;
44139;SDS011;29803;51.048;4.686;2023-01-26T08:22:28;142.32;;;30.90;;
44139;SDS011;29803;51.048;4.686;2023-01-26T08:24:59;152.55;;;34.08;;
44139;SDS011;29803;51.048;4.686;2023-01-26T08:27:30;171.07;;;32.67;;
44139;SDS011;29803;51.048;4.686;2023-01-26T08:30:00;169.20;;;33.10;;
44139;SDS011;29803;51.048;4.686;2023-01-26T08:32:31;172.73;;;31.80;;
44139;SDS011;29803;51.048;4.686;2023-01-26T08:35:01;197.98;;;32.67;;
44139;SDS011;29803;51.048;4.686;2023-01-26T08:37:32;168.80;;;32.83;;
44139;SDS011;29803;51.048;4.686;2023-01-26T08:40:03;185.65;;;33.03;;
44139;SDS011;29803;51.048;4.686;2023-01-26T08:42:33;201.60;;;35.83;;
44139;SDS011;29803;51.048;4.686;2023-01-26T08:45:04;165.88;;;33.58;;
44139;SDS011;29803;51.048;4.686;2023-01-26T08:47:35;164.02;;;31.90;;
44139;SDS011;29803;51.048;4.686;2023-01-26T08:50:05;164.60;;;30.92;;
44139;SDS011;29803;51.048;4.686;2023-01-26T08:52:36;149.27;;;29.63;;
44139;SDS011;29803;51.048;4.686;2023-01-26T08:55:07;158.30;;;30.25;;
44139;SDS011;29803;51.048;4.686;2023-01-26T08:57:37;152.50;;;29.20;;
44139;SDS011;29803;51.048;4.686;2023-01-26T09:00:08;160.98;;;30.55;;
44139;SDS011;29803;51.048;4.686;2023-01-26T09:02:39;131.38;;;29.05;;
44139;SDS011;29803;51.048;4.686;2023-01-26T09:05:10;132.73;;;28.13;;
44139;SDS011;29803;51.048;4.686;2023-01-26T09:07:40;139.38;;;28.13;;
44139;SDS011;29803;51.048;4.686;2023-01-26T09:10:11;131.07;;;30.23;;
44139;SDS011;29803;51.048;4.686;2023-01-26T09:12:41;158.32;;;30.45;;
44139;SDS011;29803;51.048;4.686;2023-01-26T09:15:12;148.75;;;28.35;;
44139;SDS011;29803;51.048;4.686;2023-01-26T09:17:42;133.90;;;28.38;;
44139;SDS011;29803;51.048;4.686;2023-01-26T09:20:13;153.90;;;28.70;;
44139;SDS011;29803;51.048;4.686;2023-01-26T09:22:44;130.85;;;28.42;;
44139;SDS011;29803;51.048;4.686;2023-01-26T09:25:15;151.32;;;28.00;;
44139;SDS011;29803;51.048;4.686;2023-01-26T09:27:45;132.80;;;27.92;;
44139;SDS011;29803;51.048;4.686;2023-01-26T09:30:16;122.38;;;25.35;;
44139;SDS011;29803;51.048;4.686;2023-01-26T09:32:46;121.50;;;25.98;;
44139;SDS011;29803;51.048;4.686;2023-01-26T09:35:17;96.97;;;23.98;;
44139;SDS011;29803;51.048;4.686;2023-01-26T09:37:48;141.82;;;31.63;;
44139;SDS011;29803;51.048;4.686;2023-01-26T09:40:20;128.85;;;25.95;;
44139;SDS011;29803;51.048;4.686;2023-01-26T09:45:49;110.70;;;26.08;;
44139;SDS011;29803;51.048;4.686;2023-01-26T09:53:43;91.90;;;23.50;;
44139;SDS011;29803;51.048;4.686;2023-01-26T09:56:17;106.40;;;24.08;;
44139;SDS011;29803;51.048;4.686;2023-01-26T09:59:04;96.40;;;22.40;;
44139;SDS011;29803;51.048;4.686;2023-01-26T10:04:34;103.80;;;23.35;;
44139;SDS011;29803;51.048;4.686;2023-01-26T10:07:09;93.95;;;23.25;;
44139;SDS011;29803;51.048;4.686;2023-01-26T10:09:43;91.95;;;21.58;;
44139;SDS011;29803;51.048;4.686;2023-01-26T10:15:18;96.55;;;23.27;;
44139;SDS011;29803;51.048;4.686;2023-01-26T10:18:02;85.38;;;21.83;;
44139;SDS011;29803;51.048;4.686;2023-01-26T10:20:41;98.00;;;24.65;;
44139;SDS011;29803;51.048;4.686;2023-01-26T10:25:52;97.35;;;23.50;;
44139;SDS011;29803;51.048;4.686;2023-01-26T10:28:28;91.85;;;25.23;;
44139;SDS011;29803;51.048;4.686;2023-01-26T10:31:07;98.13;;;25.05;;
44139;SDS011;29803;51.048;4.686;2023-01-26T10:33:54;105.47;;;24.17;;
44139;SDS011;29803;51.048;4.686;2023-01-26T10:36:32;107.45;;;26.13;;
44139;SDS011;29803;51.048;4.686;2023-01-26T10:39:06;110.70;;;24.05;;
44139;SDS011;29803;51.048;4.686;2023-01-26T10:41:38;95.80;;;23.33;;
44139;SDS011;29803;51.048;4.686;2023-01-26T10:46:40;91.10;;;22.77;;
44139;SDS011;29803;51.048;4.686;2023-01-26T10:51:44;107.78;;;25.92;;
44139;SDS011;29803;51.048;4.686;2023-01-26T10:54:33;96.43;;;23.02;;
44139;SDS011;29803;51.048;4.686;2023-01-26T10:57:16;132.43;;;25.90;;
44139;SDS011;29803;51.048;4.686;2023-01-26T10:59:55;120.68;;;28.20;;
44139;SDS011;29803;51.048;4.686;2023-01-26T11:02:28;115.70;;;25.00;;
44139;SDS011;29803;51.048;4.686;2023-01-26T11:05:12;112.35;;;25.23;;
44139;SDS011;29803;51.048;4.686;2023-01-26T11:07:48;102.63;;;23.23;;
44139;SDS011;29803;51.048;4.686;2023-01-26T11:13:06;108.05;;;25.05;;
44139;SDS011;29803;51.048;4.686;2023-01-26T11:15:38;131.65;;;26.38;;
44139;SDS011;29803;51.048;4.686;2023-01-26T11:21:17;120.00;;;24.60;;
44139;SDS011;29803;51.048;4.686;2023-01-26T11:26:53;117.85;;;24.55;;
44139;SDS011;29803;51.048;4.686;2023-01-26T11:58:29;104.80;;;25.88;;
44139;SDS011;29803;51.048;4.686;2023-01-26T12:01:10;103.32;;;23.85;;
44139;SDS011;29803;51.048;4.686;2023-01-26T12:03:48;99.57;;;24.60;;
44139;SDS011;29803;51.048;4.686;2023-01-26T12:06:28;113.90;;;25.02;;
44139;SDS011;29803;51.048;4.686;2023-01-26T12:09:14;97.88;;;24.70;;
44139;SDS011;29803;51.048;4.686;2023-01-26T12:11:53;101.43;;;24.52;;
44139;SDS011;29803;51.048;4.686;2023-01-26T12:26:12;110.70;;;23.93;;
44139;SDS011;29803;51.048;4.686;2023-01-26T12:28:47;99.65;;;24.58;;
44139;SDS011;29803;51.048;4.686;2023-01-26T12:31:30;96.53;;;23.60;;
44139;SDS011;29803;51.048;4.686;2023-01-26T12:34:07;95.65;;;21.77;;
44139;SDS011;29803;51.048;4.686;2023-01-26T12:45:11;82.93;;;21.50;;
44139;SDS011;29803;51.048;4.686;2023-01-26T12:47:49;87.32;;;20.33;;
44139;SDS011;29803;51.048;4.686;2023-01-26T12:55:45;76.18;;;18.05;;
44139;SDS011;29803;51.048;4.686;2023-01-26T12:58:21;77.82;;;18.50;;
44139;SDS011;29803;51.048;4.686;2023-01-26T13:03:41;65.78;;;17.05;;
44139;SDS011;29803;51.048;4.686;2023-01-26T13:11:46;60.17;;;16.35;;
44139;SDS011;29803;51.048;4.686;2023-01-26T13:14:30;49.58;;;14.70;;
44139;SDS011;29803;51.048;4.686;2023-01-26T13:24:48;54.75;;;15.07;;
44139;SDS011;29803;51.048;4.686;2023-01-26T13:27:31;54.55;;;13.38;;
44139;SDS011;29803;51.048;4.686;2023-01-26T13:32:55;39.40;;;9.85;;
44139;SDS011;29803;51.048;4.686;2023-01-26T13:35:51;46.03;;;9.23;;
44139;SDS011;29803;51.048;4.686;2023-01-26T13:38:34;35.38;;;7.72;;
44139;SDS011;29803;51.048;4.686;2023-01-26T13:41:19;30.92;;;6.05;;
44139;SDS011;29803;51.048;4.686;2023-01-26T13:43:54;37.22;;;5.75;;
44139;SDS011;29803;51.048;4.686;2023-01-26T13:47:06;27.13;;;5.22;;
44139;SDS011;29803;51.048;4.686;2023-01-26T13:49:43;25.70;;;4.30;;
44139;SDS011;29803;51.048;4.686;2023-01-26T13:52:18;34.67;;;5.72;;
44139;SDS011;29803;51.048;4.686;2023-01-26T13:54:54;38.45;;;4.30;;
44139;SDS011;29803;51.048;4.686;2023-01-26T13:57:29;21.77;;;3.80;;
44139;SDS011;29803;51.048;4.686;2023-01-26T14:00:00;34.28;;;5.22;;
44139;SDS011;29803;51.048;4.686;2023-01-26T14:02:32;40.50;;;4.93;;
44139;SDS011;29803;51.048;4.686;2023-01-26T14:05:04;32.85;;;4.10;;
44139;SDS011;29803;51.048;4.686;2023-01-26T14:07:37;41.90;;;5.05;;
44139;SDS011;29803;51.048;4.686;2023-01-26T14:10:17;32.88;;;5.15;;
44139;SDS011;29803;51.048;4.686;2023-01-26T14:12:52;30.00;;;4.60;;
44139;SDS011;29803;51.048;4.686;2023-01-26T14:15:28;28.23;;;4.82;;
44139;SDS011;29803;51.048;4.686;2023-01-26T14:18:01;21.90;;;3.40;;
44139;SDS011;29803;51.048;4.686;2023-01-26T14:20:35;34.45;;;5.18;;
44139;SDS011;29803;51.048;4.686;2023-01-26T14:23:17;26.30;;;4.53;;
44139;SDS011;29803;51.048;4.686;2023-01-26T14:26:02;33.17;;;6.07;;
44139;SDS011;29803;51.048;4.686;2023-01-26T14:28:35;25.15;;;3.83;;
44139;SDS011;29803;51.048;4.686;2023-01-26T14:33:50;26.10;;;4.07;;
44139;SDS011;29803;51.048;4.686;2023-01-26T14:36:26;41.80;;;6.47;;
44139;SDS011;29803;51.048;4.686;2023-01-26T14:38:58;24.13;;;2.97;;
44139;SDS011;29803;51.048;4.686;2023-01-26T14:41:30;20.38;;;3.17;;
44139;SDS011;29803;51.048;4.686;2023-01-26T14:44:04;24.95;;;3.58;;
44139;SDS011;29803;51.048;4.686;2023-01-26T14:46:39;16.45;;;2.92;;
44139;SDS011;29803;51.048;4.686;2023-01-26T14:49:36;28.42;;;4.25;;
44139;SDS011;29803;51.048;4.686;2023-01-26T14:54:57;18.48;;;3.05;;
44139;SDS011;29803;51.048;4.686;2023-01-26T14:57:35;20.77;;;3.83;;
44139;SDS011;29803;51.048;4.686;2023-01-26T15:00:06;31.13;;;4.22;;
44139;SDS011;29803;51.048;4.686;2023-01-26T15:02:48;18.20;;;3.65;;
44139;SDS011;29803;51.048;4.686;2023-01-26T15:05:22;15.65;;;2.83;;
44139;SDS011;29803;51.048;4.686;2023-01-26T15:08:01;23.27;;;2.78;;
44139;SDS011;29803;51.048;4.686;2023-01-26T15:10:53;17.27;;;2.85;;
44139;SDS011;29803;51.048;4.686;2023-01-26T15:13:47;22.33;;;3.42;;
44139;SDS011;29803;51.048;4.686;2023-01-26T15:16:23;32.67;;;4.03;;
44139;SDS011;29803;51.048;4.686;2023-01-26T15:18:59;29.40;;;4.10;;
44139;SDS011;29803;51.048;4.686;2023-01-26T15:21:35;18.05;;;3.13;;
44139;SDS011;29803;51.048;4.686;2023-01-26T15:24:13;23.30;;;3.65;;
44139;SDS011;29803;51.048;4.686;2023-01-26T15:26:44;16.27;;;3.10;;
44139;SDS011;29803;51.048;4.686;2023-01-26T15:29:24;24.17;;;3.75;;
44139;SDS011;29803;51.048;4.686;2023-01-26T15:31:57;22.30;;;3.28;;
44139;SDS011;29803;51.048;4.686;2023-01-26T15:34:35;22.30;;;2.92;;
44139;SDS011;29803;51.048;4.686;2023-01-26T15:39:59;20.02;;;2.85;;
44139;SDS011;29803;51.048;4.686;2023-01-26T15:42:30;25.67;;;4.32;;
44139;SDS011;29803;51.048;4.686;2023-01-26T15:45:02;19.33;;;3.03;;
44139;SDS011;29803;51.048;4.686;2023-01-26T15:47:32;20.08;;;3.00;;
44139;SDS011;29803;51.048;4.686;2023-01-26T15:50:03;28.25;;;3.70;;
44139;SDS011;29803;51.048;4.686;2023-01-26T15:52:33;25.75;;;3.15;;
44139;SDS011;29803;51.048;4.686;2023-01-26T15:55:11;22.88;;;4.30;;
44139;SDS011;29803;51.048;4.686;2023-01-26T15:57:50;27.42;;;4.10;;
44139;SDS011;29803;51.048;4.686;2023-01-26T16:00:21;16.38;;;3.10;;
44139;SDS011;29803;51.048;4.686;2023-01-26T16:02:52;30.77;;;3.25;;
44139;SDS011;29803;51.048;4.686;2023-01-26T16:05:23;25.42;;;3.25;;
44139;SDS011;29803;51.048;4.686;2023-01-26T16:07:55;18.38;;;3.45;;
44139;SDS011;29803;51.048;4.686;2023-01-26T16:10:26;18.15;;;3.22;;
44139;SDS011;29803;51.048;4.686;2023-01-26T16:12:56;38.03;;;4.68;;
44139;SDS011;29803;51.048;4.686;2023-01-26T16:20:44;19.85;;;3.55;;
44139;SDS011;29803;51.048;4.686;2023-01-26T16:23:23;17.30;;;2.22;;
44139;SDS011;29803;51.048;4.686;2023-01-26T16:25:56;15.95;;;2.58;;
44139;SDS011;29803;51.048;4.686;2023-01-26T16:28:27;17.80;;;2.75;;
44139;SDS011;29803;51.048;4.686;2023-01-26T16:30:57;20.65;;;2.60;;
44139;SDS011;29803;51.048;4.686;2023-01-26T16:33:28;17.65;;;2.63;;
44139;SDS011;29803;51.048;4.686;2023-01-26T16:35:58;16.50;;;2.72;;
44139;SDS011;29803;51.048;4.686;2023-01-26T16:38:29;15.60;;;3.58;;
44139;SDS011;29803;51.048;4.686;2023-01-26T16:40:59;20.58;;;2.92;;
44139;SDS011;29803;51.048;4.686;2023-01-26T16:43:30;16.10;;;2.63;;
44139;SDS011;29803;51.048;4.686;2023-01-26T16:46:00;17.20;;;2.28;;
44139;SDS011;29803;51.048;4.686;2023-01-26T16:48:31;17.00;;;2.53;;
44139;SDS011;29803;51.048;4.686;2023-01-26T16:51:14;9.32;;;2.63;;
44139;SDS011;29803;51.048;4.686;2023-01-26T16:53:47;18.27;;;2.63;;
44139;SDS011;29803;51.048;4.686;2023-01-26T16:56:18;18.13;;;3.30;;
44139;SDS011;29803;51.048;4.686;2023-01-26T16:58:49;19.88;;;2.42;;
44139;SDS011;29803;51.048;4.686;2023-01-26T17:01:21;21.23;;;2.45;;